sensor_id;sensor_type;location;lat;lon;timestamp;P1;durP1;ratioP1;P2;durP2;ratioP2
64885;SDS011;51514;52.206;5.114;2023-04-08T00:00:47;27.70;;;17.38;;
64885;SDS011;51514;52.206;5.114;2023-04-08T00:03:13;29.27;;;17.60;;
64885;SDS011;51514;52.206;5.114;2023-04-08T00:05:38;27.05;;;15.50;;
64885;SDS011;51514;52.206;5.114;2023-04-08T00:08:04;26.15;;;15.52;;
64885;SDS011;51514;52.206;5.114;2023-04-08T00:10:30;25.02;;;16.17;;
64885;SDS011;51514;52.206;5.114;2023-04-08T00:12:55;23.23;;;13.57;;
64885;SDS011;51514;52.206;5.114;2023-04-08T00:15:21;26.27;;;13.60;;
64885;SDS011;51514;52.206;5.114;2023-04-08T00:17:46;19.20;;;12.07;;
64885;SDS011;51514;52.206;5.114;2023-04-08T00:20:11;18.55;;;8.77;;
64885;SDS011;51514;52.206;5.114;2023-04-08T00:22:37;15.23;;;7.65;;
64885;SDS011;51514;52.206;5.114;2023-04-08T00:25:02;12.82;;;8.05;;
64885;SDS011;51514;52.206;5.114;2023-04-08T00:27:30;13.15;;;9.07;;
64885;SDS011;51514;52.206;5.114;2023-04-08T00:29:56;16.63;;;9.90;;
64885;SDS011;51514;52.206;5.114;2023-04-08T00:32:24;18.55;;;11.68;;
64885;SDS011;51514;52.206;5.114;2023-04-08T00:34:49;20.05;;;11.82;;
64885;SDS011;51514;52.206;5.114;2023-04-08T00:37:15;20.33;;;12.93;;
64885;SDS011;51514;52.206;5.114;2023-04-08T00:39:40;15.27;;;9.63;;
64885;SDS011;51514;52.206;5.114;2023-04-08T00:42:05;14.73;;;9.85;;
64885;SDS011;51514;52.206;5.114;2023-04-08T00:44:31;17.38;;;10.77;;
64885;SDS011;51514;52.206;5.114;2023-04-08T00:46:56;18.23;;;12.00;;
64885;SDS011;51514;52.206;5.114;2023-04-08T00:49:21;19.70;;;12.90;;
64885;SDS011;51514;52.206;5.114;2023-04-08T00:51:47;19.02;;;11.77;;
64885;SDS011;51514;52.206;5.114;2023-04-08T00:54:12;14.15;;;9.85;;
64885;SDS011;51514;52.206;5.114;2023-04-08T00:56:37;14.73;;;8.63;;
64885;SDS011;51514;52.206;5.114;2023-04-08T00:59:03;20.60;;;10.40;;
64885;SDS011;51514;52.206;5.114;2023-04-08T01:04:27;25.92;;;15.52;;
64885;SDS011;51514;52.206;5.114;2023-04-08T01:09:56;66.20;;;19.65;;
64885;SDS011;51514;52.206;5.114;2023-04-08T01:12:29;48.88;;;20.25;;
64885;SDS011;51514;52.206;5.114;2023-04-08T01:15:01;35.78;;;19.90;;
64885;SDS011;51514;52.206;5.114;2023-04-08T01:17:29;59.78;;;20.17;;
64885;SDS011;51514;52.206;5.114;2023-04-08T01:19:56;40.40;;;20.95;;
64885;SDS011;51514;52.206;5.114;2023-04-08T01:25:21;159.07;;;27.05;;
64885;SDS011;51514;52.206;5.114;2023-04-08T01:27:50;50.38;;;22.63;;
64885;SDS011;51514;52.206;5.114;2023-04-08T01:30:20;38.75;;;21.13;;
64885;SDS011;51514;52.206;5.114;2023-04-08T01:32:48;54.83;;;22.48;;
64885;SDS011;51514;52.206;5.114;2023-04-08T01:35:16;39.45;;;21.77;;
64885;SDS011;51514;52.206;5.114;2023-04-08T01:37:42;69.13;;;24.02;;
64885;SDS011;51514;52.206;5.114;2023-04-08T01:40:10;39.15;;;22.70;;
64885;SDS011;51514;52.206;5.114;2023-04-08T01:42:36;122.97;;;25.52;;
64885;SDS011;51514;52.206;5.114;2023-04-08T01:45:02;67.25;;;22.42;;
64885;SDS011;51514;52.206;5.114;2023-04-08T01:47:29;47.38;;;22.80;;
64885;SDS011;51514;52.206;5.114;2023-04-08T01:49:55;45.58;;;22.90;;
64885;SDS011;51514;52.206;5.114;2023-04-08T01:52:22;41.30;;;21.85;;
64885;SDS011;51514;52.206;5.114;2023-04-08T01:54:50;148.75;;;26.38;;
64885;SDS011;51514;52.206;5.114;2023-04-08T01:57:18;181.32;;;27.27;;
64885;SDS011;51514;52.206;5.114;2023-04-08T01:59:49;46.25;;;23.13;;
64885;SDS011;51514;52.206;5.114;2023-04-08T02:02:16;60.47;;;24.73;;
64885;SDS011;51514;52.206;5.114;2023-04-08T02:04:45;106.87;;;26.17;;
64885;SDS011;51514;52.206;5.114;2023-04-08T02:07:10;63.92;;;23.70;;
64885;SDS011;51514;52.206;5.114;2023-04-08T02:09:36;47.22;;;23.20;;
64885;SDS011;51514;52.206;5.114;2023-04-08T02:12:01;42.00;;;25.08;;
64885;SDS011;51514;52.206;5.114;2023-04-08T02:14:27;41.97;;;24.17;;
64885;SDS011;51514;52.206;5.114;2023-04-08T02:16:53;59.20;;;24.42;;
64885;SDS011;51514;52.206;5.114;2023-04-08T02:19:30;42.33;;;24.60;;
64885;SDS011;51514;52.206;5.114;2023-04-08T02:22:04;44.63;;;23.38;;
64885;SDS011;51514;52.206;5.114;2023-04-08T02:24:35;57.22;;;25.20;;
64885;SDS011;51514;52.206;5.114;2023-04-08T02:27:04;52.30;;;25.40;;
64885;SDS011;51514;52.206;5.114;2023-04-08T02:29:32;51.55;;;25.23;;
64885;SDS011;51514;52.206;5.114;2023-04-08T02:32:00;37.17;;;22.15;;
64885;SDS011;51514;52.206;5.114;2023-04-08T02:34:28;53.03;;;24.02;;
64885;SDS011;51514;52.206;5.114;2023-04-08T02:36:54;36.30;;;23.75;;
64885;SDS011;51514;52.206;5.114;2023-04-08T02:39:20;41.65;;;23.35;;
64885;SDS011;51514;52.206;5.114;2023-04-08T02:41:45;54.10;;;26.05;;
64885;SDS011;51514;52.206;5.114;2023-04-08T02:44:10;41.15;;;22.60;;
64885;SDS011;51514;52.206;5.114;2023-04-08T02:46:36;36.05;;;21.83;;
64885;SDS011;51514;52.206;5.114;2023-04-08T02:49:01;34.05;;;22.98;;
64885;SDS011;51514;52.206;5.114;2023-04-08T02:51:28;70.43;;;24.38;;
64885;SDS011;51514;52.206;5.114;2023-04-08T02:53:53;46.53;;;21.80;;
64885;SDS011;51514;52.206;5.114;2023-04-08T02:56:19;47.28;;;22.60;;
64885;SDS011;51514;52.206;5.114;2023-04-08T02:58:45;38.58;;;20.55;;
64885;SDS011;51514;52.206;5.114;2023-04-08T03:01:11;34.67;;;21.60;;
64885;SDS011;51514;52.206;5.114;2023-04-08T03:03:36;32.50;;;20.95;;
64885;SDS011;51514;52.206;5.114;2023-04-08T03:06:02;37.20;;;23.70;;
64885;SDS011;51514;52.206;5.114;2023-04-08T03:08:27;35.42;;;24.05;;
64885;SDS011;51514;52.206;5.114;2023-04-08T03:10:53;46.60;;;26.60;;
64885;SDS011;51514;52.206;5.114;2023-04-08T03:13:18;43.78;;;25.02;;
64885;SDS011;51514;52.206;5.114;2023-04-08T03:15:43;43.50;;;26.00;;
64885;SDS011;51514;52.206;5.114;2023-04-08T03:18:09;43.13;;;25.90;;
64885;SDS011;51514;52.206;5.114;2023-04-08T03:20:34;42.60;;;25.17;;
64885;SDS011;51514;52.206;5.114;2023-04-08T03:23:00;42.17;;;25.02;;
64885;SDS011;51514;52.206;5.114;2023-04-08T03:25:25;39.08;;;24.38;;
64885;SDS011;51514;52.206;5.114;2023-04-08T03:27:53;43.15;;;25.35;;
64885;SDS011;51514;52.206;5.114;2023-04-08T03:30:18;37.35;;;24.13;;
64885;SDS011;51514;52.206;5.114;2023-04-08T03:32:43;40.05;;;24.60;;
64885;SDS011;51514;52.206;5.114;2023-04-08T03:35:09;42.53;;;23.58;;
64885;SDS011;51514;52.206;5.114;2023-04-08T03:37:34;46.88;;;23.35;;
64885;SDS011;51514;52.206;5.114;2023-04-08T03:40:00;49.85;;;21.73;;
64885;SDS011;51514;52.206;5.114;2023-04-08T03:42:25;42.92;;;23.10;;
64885;SDS011;51514;52.206;5.114;2023-04-08T03:44:51;44.00;;;23.60;;
64885;SDS011;51514;52.206;5.114;2023-04-08T03:47:16;40.45;;;22.15;;
64885;SDS011;51514;52.206;5.114;2023-04-08T03:49:41;34.47;;;22.35;;
64885;SDS011;51514;52.206;5.114;2023-04-08T03:52:07;37.38;;;22.10;;
64885;SDS011;51514;52.206;5.114;2023-04-08T03:54:32;43.28;;;25.25;;
64885;SDS011;51514;52.206;5.114;2023-04-08T03:56:57;44.60;;;25.15;;
64885;SDS011;51514;52.206;5.114;2023-04-08T03:59:23;48.38;;;24.67;;
64885;SDS011;51514;52.206;5.114;2023-04-08T04:01:48;41.20;;;24.98;;
64885;SDS011;51514;52.206;5.114;2023-04-08T04:04:15;56.13;;;27.45;;
64885;SDS011;51514;52.206;5.114;2023-04-08T04:06:40;79.30;;;29.15;;
64885;SDS011;51514;52.206;5.114;2023-04-08T04:09:06;73.20;;;28.25;;
64885;SDS011;51514;52.206;5.114;2023-04-08T04:11:32;51.97;;;26.50;;
64885;SDS011;51514;52.206;5.114;2023-04-08T04:13:58;53.33;;;27.92;;
64885;SDS011;51514;52.206;5.114;2023-04-08T04:16:23;103.97;;;30.50;;
64885;SDS011;51514;52.206;5.114;2023-04-08T04:18:49;48.88;;;30.33;;
64885;SDS011;51514;52.206;5.114;2023-04-08T04:21:16;59.72;;;27.55;;
64885;SDS011;51514;52.206;5.114;2023-04-08T04:23:41;54.70;;;30.05;;
64885;SDS011;51514;52.206;5.114;2023-04-08T04:26:08;56.13;;;29.35;;
64885;SDS011;51514;52.206;5.114;2023-04-08T04:28:34;48.78;;;29.10;;
64885;SDS011;51514;52.206;5.114;2023-04-08T04:30:59;51.00;;;31.67;;
64885;SDS011;51514;52.206;5.114;2023-04-08T04:33:24;52.58;;;31.60;;
64885;SDS011;51514;52.206;5.114;2023-04-08T04:35:50;50.10;;;29.70;;
64885;SDS011;51514;52.206;5.114;2023-04-08T04:38:15;56.60;;;32.28;;
64885;SDS011;51514;52.206;5.114;2023-04-08T04:40:41;50.78;;;28.95;;
64885;SDS011;51514;52.206;5.114;2023-04-08T04:43:06;51.15;;;29.95;;
64885;SDS011;51514;52.206;5.114;2023-04-08T04:45:31;46.88;;;29.38;;
64885;SDS011;51514;52.206;5.114;2023-04-08T04:47:57;49.33;;;29.73;;
64885;SDS011;51514;52.206;5.114;2023-04-08T04:50:22;41.25;;;27.90;;
64885;SDS011;51514;52.206;5.114;2023-04-08T04:52:47;35.53;;;25.88;;
64885;SDS011;51514;52.206;5.114;2023-04-08T04:55:13;38.35;;;25.02;;
64885;SDS011;51514;52.206;5.114;2023-04-08T04:57:40;34.03;;;23.35;;
64885;SDS011;51514;52.206;5.114;2023-04-08T05:00:05;25.92;;;19.13;;
64885;SDS011;51514;52.206;5.114;2023-04-08T05:02:32;25.42;;;19.92;;
64885;SDS011;51514;52.206;5.114;2023-04-08T05:04:57;24.63;;;18.83;;
64885;SDS011;51514;52.206;5.114;2023-04-08T05:07:23;25.23;;;16.67;;
64885;SDS011;51514;52.206;5.114;2023-04-08T05:09:48;22.88;;;17.00;;
64885;SDS011;51514;52.206;5.114;2023-04-08T05:12:14;21.48;;;16.50;;
64885;SDS011;51514;52.206;5.114;2023-04-08T05:14:40;22.15;;;16.95;;
64885;SDS011;51514;52.206;5.114;2023-04-08T05:17:06;19.25;;;15.38;;
64885;SDS011;51514;52.206;5.114;2023-04-08T05:19:31;19.92;;;16.65;;
64885;SDS011;51514;52.206;5.114;2023-04-08T05:21:56;20.42;;;15.05;;
64885;SDS011;51514;52.206;5.114;2023-04-08T05:24:22;18.92;;;14.88;;
64885;SDS011;51514;52.206;5.114;2023-04-08T05:26:47;20.70;;;15.32;;
64885;SDS011;51514;52.206;5.114;2023-04-08T05:29:16;18.80;;;15.50;;
64885;SDS011;51514;52.206;5.114;2023-04-08T05:31:42;18.23;;;14.38;;
64885;SDS011;51514;52.206;5.114;2023-04-08T05:34:08;18.77;;;14.93;;
64885;SDS011;51514;52.206;5.114;2023-04-08T05:36:34;21.10;;;16.17;;
64885;SDS011;51514;52.206;5.114;2023-04-08T05:38:59;19.75;;;14.82;;
64885;SDS011;51514;52.206;5.114;2023-04-08T05:41:24;21.27;;;16.05;;
64885;SDS011;51514;52.206;5.114;2023-04-08T05:43:50;21.38;;;15.75;;
64885;SDS011;51514;52.206;5.114;2023-04-08T05:46:16;19.95;;;15.95;;
64885;SDS011;51514;52.206;5.114;2023-04-08T05:48:41;20.10;;;15.00;;
64885;SDS011;51514;52.206;5.114;2023-04-08T05:51:11;17.77;;;14.50;;
64885;SDS011;51514;52.206;5.114;2023-04-08T05:53:37;20.75;;;15.38;;
64885;SDS011;51514;52.206;5.114;2023-04-08T05:56:03;18.52;;;14.40;;
64885;SDS011;51514;52.206;5.114;2023-04-08T05:58:28;18.88;;;14.13;;
64885;SDS011;51514;52.206;5.114;2023-04-08T06:00:54;20.40;;;13.75;;
64885;SDS011;51514;52.206;5.114;2023-04-08T06:03:19;23.25;;;14.52;;
64885;SDS011;51514;52.206;5.114;2023-04-08T06:05:45;20.25;;;14.60;;
64885;SDS011;51514;52.206;5.114;2023-04-08T06:08:10;18.60;;;14.48;;
64885;SDS011;51514;52.206;5.114;2023-04-08T06:10:35;20.23;;;14.63;;
64885;SDS011;51514;52.206;5.114;2023-04-08T06:13:01;19.17;;;14.57;;
64885;SDS011;51514;52.206;5.114;2023-04-08T06:15:26;18.13;;;13.82;;
64885;SDS011;51514;52.206;5.114;2023-04-08T06:17:52;16.98;;;13.05;;
64885;SDS011;51514;52.206;5.114;2023-04-08T06:20:17;16.42;;;12.77;;
64885;SDS011;51514;52.206;5.114;2023-04-08T06:22:42;17.75;;;12.35;;
64885;SDS011;51514;52.206;5.114;2023-04-08T06:25:08;14.20;;;11.82;;
64885;SDS011;51514;52.206;5.114;2023-04-08T06:27:33;15.55;;;12.95;;
64885;SDS011;51514;52.206;5.114;2023-04-08T06:29:58;15.85;;;11.48;;
64885;SDS011;51514;52.206;5.114;2023-04-08T06:32:24;13.95;;;10.57;;
64885;SDS011;51514;52.206;5.114;2023-04-08T06:34:49;14.02;;;11.38;;
64885;SDS011;51514;52.206;5.114;2023-04-08T06:37:15;13.63;;;10.65;;
64885;SDS011;51514;52.206;5.114;2023-04-08T06:39:40;11.40;;;9.98;;
64885;SDS011;51514;52.206;5.114;2023-04-08T06:42:06;13.68;;;10.73;;
64885;SDS011;51514;52.206;5.114;2023-04-08T06:44:31;13.65;;;10.98;;
64885;SDS011;51514;52.206;5.114;2023-04-08T06:46:56;16.05;;;11.50;;
64885;SDS011;51514;52.206;5.114;2023-04-08T06:49:22;14.02;;;11.18;;
64885;SDS011;51514;52.206;5.114;2023-04-08T06:51:47;17.00;;;11.60;;
64885;SDS011;51514;52.206;5.114;2023-04-08T06:54:13;15.85;;;11.32;;
64885;SDS011;51514;52.206;5.114;2023-04-08T06:56:38;14.60;;;10.85;;
64885;SDS011;51514;52.206;5.114;2023-04-08T06:59:03;13.90;;;10.43;;
64885;SDS011;51514;52.206;5.114;2023-04-08T07:01:29;14.95;;;10.55;;
64885;SDS011;51514;52.206;5.114;2023-04-08T07:03:56;14.88;;;10.50;;
64885;SDS011;51514;52.206;5.114;2023-04-08T07:06:21;15.52;;;11.32;;
64885;SDS011;51514;52.206;5.114;2023-04-08T07:08:46;13.80;;;11.13;;
64885;SDS011;51514;52.206;5.114;2023-04-08T07:11:12;15.15;;;11.75;;
64885;SDS011;51514;52.206;5.114;2023-04-08T07:13:37;13.98;;;10.85;;
64885;SDS011;51514;52.206;5.114;2023-04-08T07:16:02;15.32;;;11.98;;
64885;SDS011;51514;52.206;5.114;2023-04-08T07:18:28;13.43;;;11.48;;
64885;SDS011;51514;52.206;5.114;2023-04-08T07:20:54;15.88;;;12.02;;
64885;SDS011;51514;52.206;5.114;2023-04-08T07:23:20;14.60;;;11.50;;
64885;SDS011;51514;52.206;5.114;2023-04-08T07:25:46;14.25;;;11.02;;
64885;SDS011;51514;52.206;5.114;2023-04-08T07:28:12;16.17;;;10.50;;
64885;SDS011;51514;52.206;5.114;2023-04-08T07:30:37;12.15;;;9.85;;
64885;SDS011;51514;52.206;5.114;2023-04-08T07:33:03;13.82;;;9.57;;
64885;SDS011;51514;52.206;5.114;2023-04-08T07:35:28;14.02;;;9.95;;
64885;SDS011;51514;52.206;5.114;2023-04-08T07:37:53;13.90;;;10.85;;
64885;SDS011;51514;52.206;5.114;2023-04-08T07:40:19;14.63;;;11.18;;
64885;SDS011;51514;52.206;5.114;2023-04-08T07:42:45;16.27;;;11.32;;
64885;SDS011;51514;52.206;5.114;2023-04-08T07:45:11;13.15;;;10.18;;
64885;SDS011;51514;52.206;5.114;2023-04-08T07:47:36;15.73;;;10.95;;
64885;SDS011;51514;52.206;5.114;2023-04-08T07:50:02;12.20;;;10.35;;
64885;SDS011;51514;52.206;5.114;2023-04-08T07:52:30;12.85;;;10.15;;
64885;SDS011;51514;52.206;5.114;2023-04-08T07:54:56;15.00;;;10.43;;
64885;SDS011;51514;52.206;5.114;2023-04-08T07:57:21;14.98;;;10.52;;
64885;SDS011;51514;52.206;5.114;2023-04-08T07:59:46;12.90;;;9.65;;
64885;SDS011;51514;52.206;5.114;2023-04-08T08:02:12;14.02;;;10.70;;
64885;SDS011;51514;52.206;5.114;2023-04-08T08:04:37;13.38;;;10.00;;
64885;SDS011;51514;52.206;5.114;2023-04-08T08:07:02;15.23;;;11.40;;
64885;SDS011;51514;52.206;5.114;2023-04-08T08:09:28;13.15;;;10.15;;
64885;SDS011;51514;52.206;5.114;2023-04-08T08:11:53;15.10;;;11.15;;
64885;SDS011;51514;52.206;5.114;2023-04-08T08:14:18;14.77;;;10.25;;
64885;SDS011;51514;52.206;5.114;2023-04-08T08:16:44;13.32;;;9.43;;
64885;SDS011;51514;52.206;5.114;2023-04-08T08:19:09;12.60;;;10.20;;
64885;SDS011;51514;52.206;5.114;2023-04-08T08:21:36;12.45;;;10.73;;
64885;SDS011;51514;52.206;5.114;2023-04-08T08:24:01;12.95;;;9.90;;
64885;SDS011;51514;52.206;5.114;2023-04-08T08:26:27;14.75;;;9.35;;
64885;SDS011;51514;52.206;5.114;2023-04-08T08:28:52;12.25;;;9.35;;
64885;SDS011;51514;52.206;5.114;2023-04-08T08:31:18;15.98;;;10.52;;
64885;SDS011;51514;52.206;5.114;2023-04-08T08:33:44;11.18;;;9.63;;
64885;SDS011;51514;52.206;5.114;2023-04-08T08:36:09;12.43;;;9.73;;
64885;SDS011;51514;52.206;5.114;2023-04-08T08:38:35;13.50;;;10.50;;
64885;SDS011;51514;52.206;5.114;2023-04-08T08:41:00;14.27;;;10.25;;
64885;SDS011;51514;52.206;5.114;2023-04-08T08:43:28;12.30;;;9.88;;
64885;SDS011;51514;52.206;5.114;2023-04-08T08:45:53;13.90;;;10.38;;
64885;SDS011;51514;52.206;5.114;2023-04-08T08:48:19;13.77;;;9.45;;
64885;SDS011;51514;52.206;5.114;2023-04-08T08:50:44;12.27;;;10.05;;
64885;SDS011;51514;52.206;5.114;2023-04-08T08:53:10;13.27;;;9.95;;
64885;SDS011;51514;52.206;5.114;2023-04-08T08:55:36;12.75;;;9.90;;
64885;SDS011;51514;52.206;5.114;2023-04-08T08:58:04;12.43;;;9.68;;
64885;SDS011;51514;52.206;5.114;2023-04-08T09:00:35;10.75;;;9.10;;
64885;SDS011;51514;52.206;5.114;2023-04-08T09:03:18;10.77;;;9.18;;
64885;SDS011;51514;52.206;5.114;2023-04-08T09:10:49;12.40;;;9.10;;
64885;SDS011;51514;52.206;5.114;2023-04-08T09:13:14;13.15;;;9.82;;
64885;SDS011;51514;52.206;5.114;2023-04-08T09:18:27;13.60;;;9.82;;
64885;SDS011;51514;52.206;5.114;2023-04-08T09:20:53;12.98;;;9.90;;
64885;SDS011;51514;52.206;5.114;2023-04-08T09:23:18;13.48;;;10.60;;
64885;SDS011;51514;52.206;5.114;2023-04-08T09:25:44;14.38;;;10.07;;
64885;SDS011;51514;52.206;5.114;2023-04-08T09:28:19;13.07;;;9.60;;
64885;SDS011;51514;52.206;5.114;2023-04-08T09:30:45;11.70;;;9.48;;
64885;SDS011;51514;52.206;5.114;2023-04-08T09:33:12;13.10;;;10.23;;
64885;SDS011;51514;52.206;5.114;2023-04-08T09:35:37;12.90;;;10.70;;
64885;SDS011;51514;52.206;5.114;2023-04-08T09:38:02;16.23;;;10.35;;
64885;SDS011;51514;52.206;5.114;2023-04-08T09:40:28;13.45;;;9.68;;
64885;SDS011;51514;52.206;5.114;2023-04-08T09:43:03;13.57;;;10.38;;
64885;SDS011;51514;52.206;5.114;2023-04-08T09:45:29;16.25;;;10.63;;
64885;SDS011;51514;52.206;5.114;2023-04-08T09:50:42;15.50;;;10.13;;
64885;SDS011;51514;52.206;5.114;2023-04-08T09:53:15;12.48;;;9.93;;
64885;SDS011;51514;52.206;5.114;2023-04-08T09:55:44;13.38;;;10.57;;
64885;SDS011;51514;52.206;5.114;2023-04-08T09:58:14;15.95;;;10.20;;
64885;SDS011;51514;52.206;5.114;2023-04-08T10:00:45;12.70;;;10.00;;
64885;SDS011;51514;52.206;5.114;2023-04-08T10:05:45;14.10;;;10.38;;
64885;SDS011;51514;52.206;5.114;2023-04-08T10:08:12;11.48;;;9.68;;
64885;SDS011;51514;52.206;5.114;2023-04-08T10:10:39;11.60;;;9.75;;
64885;SDS011;51514;52.206;5.114;2023-04-08T10:13:05;12.05;;;9.55;;
64885;SDS011;51514;52.206;5.114;2023-04-08T10:15:32;11.32;;;9.35;;
64885;SDS011;51514;52.206;5.114;2023-04-08T10:22:58;12.45;;;9.30;;
64885;SDS011;51514;52.206;5.114;2023-04-08T10:25:33;13.95;;;10.00;;
64885;SDS011;51514;52.206;5.114;2023-04-08T10:30:44;13.00;;;9.57;;
64885;SDS011;51514;52.206;5.114;2023-04-08T10:35:46;12.85;;;9.05;;
64885;SDS011;51514;52.206;5.114;2023-04-08T10:38:15;11.25;;;8.60;;
64885;SDS011;51514;52.206;5.114;2023-04-08T10:40:41;10.93;;;8.80;;
64885;SDS011;51514;52.206;5.114;2023-04-08T10:43:08;14.85;;;9.45;;
64885;SDS011;51514;52.206;5.114;2023-04-08T10:45:35;12.60;;;9.18;;
64885;SDS011;51514;52.206;5.114;2023-04-08T10:48:10;12.43;;;9.23;;
64885;SDS011;51514;52.206;5.114;2023-04-08T10:50:41;14.18;;;9.10;;
64885;SDS011;51514;52.206;5.114;2023-04-08T10:53:07;11.70;;;8.88;;
64885;SDS011;51514;52.206;5.114;2023-04-08T10:55:34;12.50;;;9.13;;
64885;SDS011;51514;52.206;5.114;2023-04-08T10:58:06;12.48;;;8.93;;
64885;SDS011;51514;52.206;5.114;2023-04-08T11:00:36;12.57;;;9.43;;
64885;SDS011;51514;52.206;5.114;2023-04-08T11:03:03;11.05;;;8.75;;
64885;SDS011;51514;52.206;5.114;2023-04-08T11:05:30;11.60;;;9.43;;
64885;SDS011;51514;52.206;5.114;2023-04-08T11:07:59;12.18;;;8.93;;
64885;SDS011;51514;52.206;5.114;2023-04-08T11:10:25;11.10;;;8.67;;
64885;SDS011;51514;52.206;5.114;2023-04-08T11:12:52;10.75;;;8.13;;
64885;SDS011;51514;52.206;5.114;2023-04-08T11:17:50;12.65;;;9.00;;
64885;SDS011;51514;52.206;5.114;2023-04-08T11:20:16;12.82;;;8.80;;
64885;SDS011;51514;52.206;5.114;2023-04-08T11:22:42;12.98;;;9.75;;
64885;SDS011;51514;52.206;5.114;2023-04-08T11:25:09;11.25;;;8.63;;
64885;SDS011;51514;52.206;5.114;2023-04-08T11:27:35;10.82;;;8.20;;
64885;SDS011;51514;52.206;5.114;2023-04-08T11:30:01;11.30;;;8.50;;
64885;SDS011;51514;52.206;5.114;2023-04-08T11:32:28;15.48;;;10.40;;
64885;SDS011;51514;52.206;5.114;2023-04-08T11:34:54;12.75;;;8.32;;
64885;SDS011;51514;52.206;5.114;2023-04-08T11:37:19;12.05;;;9.38;;
64885;SDS011;51514;52.206;5.114;2023-04-08T11:39:46;12.48;;;9.98;;
64885;SDS011;51514;52.206;5.114;2023-04-08T11:42:27;11.55;;;8.77;;
64885;SDS011;51514;52.206;5.114;2023-04-08T11:44:53;11.15;;;8.63;;
64885;SDS011;51514;52.206;5.114;2023-04-08T11:47:19;12.90;;;10.10;;
64885;SDS011;51514;52.206;5.114;2023-04-08T11:49:45;12.88;;;9.73;;
64885;SDS011;51514;52.206;5.114;2023-04-08T11:52:11;13.57;;;8.93;;
64885;SDS011;51514;52.206;5.114;2023-04-08T11:54:40;14.43;;;9.52;;
64885;SDS011;51514;52.206;5.114;2023-04-08T11:57:06;16.92;;;10.35;;
64885;SDS011;51514;52.206;5.114;2023-04-08T11:59:34;13.48;;;9.85;;
64885;SDS011;51514;52.206;5.114;2023-04-08T12:02:00;13.18;;;10.43;;
64885;SDS011;51514;52.206;5.114;2023-04-08T12:04:26;13.15;;;9.85;;
64885;SDS011;51514;52.206;5.114;2023-04-08T12:06:51;13.75;;;10.27;;
64885;SDS011;51514;52.206;5.114;2023-04-08T12:09:17;15.00;;;10.40;;
64885;SDS011;51514;52.206;5.114;2023-04-08T12:11:42;14.10;;;10.10;;
64885;SDS011;51514;52.206;5.114;2023-04-08T12:14:08;16.02;;;10.70;;
64885;SDS011;51514;52.206;5.114;2023-04-08T12:16:33;13.88;;;10.27;;
64885;SDS011;51514;52.206;5.114;2023-04-08T12:18:59;14.13;;;10.65;;
64885;SDS011;51514;52.206;5.114;2023-04-08T12:21:24;12.60;;;10.48;;
64885;SDS011;51514;52.206;5.114;2023-04-08T12:23:49;13.98;;;10.23;;
64885;SDS011;51514;52.206;5.114;2023-04-08T12:26:16;12.07;;;10.25;;
64885;SDS011;51514;52.206;5.114;2023-04-08T12:28:41;13.55;;;10.82;;
64885;SDS011;51514;52.206;5.114;2023-04-08T12:31:06;12.82;;;10.23;;
64885;SDS011;51514;52.206;5.114;2023-04-08T12:33:32;15.27;;;11.32;;
64885;SDS011;51514;52.206;5.114;2023-04-08T12:35:57;12.25;;;10.02;;
64885;SDS011;51514;52.206;5.114;2023-04-08T12:38:23;15.77;;;10.57;;
64885;SDS011;51514;52.206;5.114;2023-04-08T12:40:50;13.60;;;11.10;;
64885;SDS011;51514;52.206;5.114;2023-04-08T12:43:16;14.80;;;10.93;;
64885;SDS011;51514;52.206;5.114;2023-04-08T12:45:41;17.00;;;10.45;;
64885;SDS011;51514;52.206;5.114;2023-04-08T12:48:07;14.25;;;10.80;;
64885;SDS011;51514;52.206;5.114;2023-04-08T12:50:32;14.40;;;10.70;;
64885;SDS011;51514;52.206;5.114;2023-04-08T12:52:58;14.85;;;9.93;;
64885;SDS011;51514;52.206;5.114;2023-04-08T12:55:23;14.95;;;8.85;;
64885;SDS011;51514;52.206;5.114;2023-04-08T12:57:49;16.40;;;9.20;;
64885;SDS011;51514;52.206;5.114;2023-04-08T13:00:15;16.92;;;10.25;;
64885;SDS011;51514;52.206;5.114;2023-04-08T13:02:41;14.48;;;10.15;;
64885;SDS011;51514;52.206;5.114;2023-04-08T13:05:08;14.77;;;10.40;;
64885;SDS011;51514;52.206;5.114;2023-04-08T13:07:34;16.67;;;11.85;;
64885;SDS011;51514;52.206;5.114;2023-04-08T13:09:59;15.73;;;11.23;;
64885;SDS011;51514;52.206;5.114;2023-04-08T13:12:24;16.48;;;11.25;;
64885;SDS011;51514;52.206;5.114;2023-04-08T13:14:51;14.05;;;11.02;;
64885;SDS011;51514;52.206;5.114;2023-04-08T13:17:16;16.83;;;11.38;;
64885;SDS011;51514;52.206;5.114;2023-04-08T13:19:42;17.75;;;11.25;;
64885;SDS011;51514;52.206;5.114;2023-04-08T13:22:07;15.00;;;11.05;;
64885;SDS011;51514;52.206;5.114;2023-04-08T13:24:33;15.23;;;10.90;;
64885;SDS011;51514;52.206;5.114;2023-04-08T13:26:58;15.27;;;10.65;;
64885;SDS011;51514;52.206;5.114;2023-04-08T13:29:23;14.23;;;9.40;;
64885;SDS011;51514;52.206;5.114;2023-04-08T13:31:49;13.05;;;9.70;;
64885;SDS011;51514;52.206;5.114;2023-04-08T13:34:15;14.02;;;10.48;;
64885;SDS011;51514;52.206;5.114;2023-04-08T13:36:40;15.48;;;11.00;;
64885;SDS011;51514;52.206;5.114;2023-04-08T13:39:06;15.23;;;10.95;;
64885;SDS011;51514;52.206;5.114;2023-04-08T13:41:31;14.27;;;10.85;;
64885;SDS011;51514;52.206;5.114;2023-04-08T13:43:58;14.43;;;11.77;;
64885;SDS011;51514;52.206;5.114;2023-04-08T13:46:24;15.07;;;11.35;;
64885;SDS011;51514;52.206;5.114;2023-04-08T13:48:50;16.08;;;12.73;;
64885;SDS011;51514;52.206;5.114;2023-04-08T13:51:15;17.85;;;12.48;;
64885;SDS011;51514;52.206;5.114;2023-04-08T13:53:41;16.23;;;12.27;;
64885;SDS011;51514;52.206;5.114;2023-04-08T13:56:06;17.40;;;12.90;;
64885;SDS011;51514;52.206;5.114;2023-04-08T13:58:32;14.63;;;11.57;;
64885;SDS011;51514;52.206;5.114;2023-04-08T14:00:57;15.57;;;11.82;;
64885;SDS011;51514;52.206;5.114;2023-04-08T14:03:22;16.10;;;11.80;;
64885;SDS011;51514;52.206;5.114;2023-04-08T14:05:48;18.10;;;12.13;;
64885;SDS011;51514;52.206;5.114;2023-04-08T14:08:14;18.15;;;12.20;;
64885;SDS011;51514;52.206;5.114;2023-04-08T14:10:40;14.52;;;11.48;;
64885;SDS011;51514;52.206;5.114;2023-04-08T14:13:06;13.98;;;10.55;;
64885;SDS011;51514;52.206;5.114;2023-04-08T14:15:31;15.80;;;11.63;;
64885;SDS011;51514;52.206;5.114;2023-04-08T14:17:56;15.88;;;10.88;;
64885;SDS011;51514;52.206;5.114;2023-04-08T14:20:22;16.38;;;11.00;;
64885;SDS011;51514;52.206;5.114;2023-04-08T14:22:47;14.57;;;11.10;;
64885;SDS011;51514;52.206;5.114;2023-04-08T14:25:12;16.02;;;12.25;;
64885;SDS011;51514;52.206;5.114;2023-04-08T14:27:38;15.88;;;12.13;;
64885;SDS011;51514;52.206;5.114;2023-04-08T14:30:03;17.38;;;12.57;;
64885;SDS011;51514;52.206;5.114;2023-04-08T14:32:29;16.88;;;14.00;;
64885;SDS011;51514;52.206;5.114;2023-04-08T14:34:56;18.40;;;13.27;;
64885;SDS011;51514;52.206;5.114;2023-04-08T14:37:21;17.90;;;13.65;;
64885;SDS011;51514;52.206;5.114;2023-04-08T14:39:47;16.20;;;12.73;;
64885;SDS011;51514;52.206;5.114;2023-04-08T14:42:12;17.17;;;13.05;;
64885;SDS011;51514;52.206;5.114;2023-04-08T14:44:40;17.65;;;12.73;;
64885;SDS011;51514;52.206;5.114;2023-04-08T14:47:06;16.75;;;11.32;;
64885;SDS011;51514;52.206;5.114;2023-04-08T14:49:32;18.42;;;14.02;;
64885;SDS011;51514;52.206;5.114;2023-04-08T14:51:57;17.73;;;14.55;;